Time;durP1;ratioP1;P1;durP2;ratioP2;P2;SDS_P1;SDS_P2;PMS_P1;PMS_P2;Temp;Humidity;BMP_temperature;BMP_pressure;BME280_temperature;BME280_humidity;BME280_pressure;Samples;Min_cycle;Max_cycle;Signal;HPM_P1;HPM_P2
2023/05/30 00:01:45;;;;;;;9.70;4.80;;;;;;;16.58;86.60;99230.16;4923479;29;20047;-91
2023/05/30 00:04:11;;;;;;;6.80;5.07;;;;;;;16.73;86.52;99254.19;4921680;29;20020;-91
2023/05/30 00:06:36;;;;;;;7.70;5.22;;;;;;;16.62;86.86;99236.56;4906149;29;20034;-92
2023/05/30 00:09:02;;;;;;;6.80;5.25;;;;;;;16.61;87.28;99240.38;4906111;29;20027;-91
2023/05/30 00:11:28;;;;;;;9.50;5.97;;;;;;;16.44;88.01;99245.72;4905990;29;20114;-91
2023/05/30 00:13:54;;;;;;;8.82;6.40;;;;;;;16.41;88.00;99243.63;4905974;29;20087;-92
2023/05/30 00:16:20;;;;;;;9.35;5.75;;;;;;;16.48;87.93;99244.78;4905521;29;20066;-91
2023/05/30 00:18:48;;;;;;;12.85;5.60;;;;;;;16.47;87.66;99236.94;4905663;29;20441;-92
2023/05/30 00:21:14;;;;;;;9.70;5.68;;;;;;;16.43;88.66;99235.94;4906390;29;20086;-92
2023/05/30 00:23:39;;;;;;;10.40;5.95;;;;;;;16.41;89.11;99238.97;4921666;29;20107;-91
2023/05/30 00:26:08;;;;;;;8.05;6.05;;;;;;;16.41;88.70;99238.19;4905991;29;20052;-91
2023/05/30 00:28:33;;;;;;;7.97;5.90;;;;;;;16.42;88.78;99239.81;4922492;29;20031;-91
2023/05/30 00:30:59;;;;;;;9.57;6.32;;;;;;;16.36;89.43;99229.03;4921189;29;20031;-91
2023/05/30 00:33:24;;;;;;;9.30;6.05;;;;;;;16.40;89.34;99244.75;4921602;29;20028;-91
2023/05/30 00:35:50;;;;;;;17.05;6.70;;;;;;;16.35;89.43;99235.59;4921352;29;20079;-91
2023/05/30 00:38:15;;;;;;;14.18;7.07;;;;;;;16.39;89.65;99240.41;4922004;29;20032;-92
2023/05/30 00:40:41;;;;;;;9.80;6.95;;;;;;;16.33;90.39;99248.69;4905876;29;20024;-91
2023/05/30 00:43:07;;;;;;;16.00;7.20;;;;;;;16.31;90.15;99244.66;4906404;29;20074;-92
2023/05/30 00:45:32;;;;;;;11.25;6.80;;;;;;;16.25;89.86;99230.41;4922674;29;20037;-92
2023/05/30 00:47:59;;;;;;;11.77;7.22;;;;;;;16.34;90.09;99263.88;4937793;29;20024;-91
2023/05/30 00:50:26;;;;;;;9.07;6.75;;;;;;;16.14;90.67;99235.31;4922466;29;20402;-92
2023/05/30 00:52:51;;;;;;;18.55;7.60;;;;;;;16.25;90.17;99238.56;4922111;29;20028;-91
2023/05/30 00:55:17;;;;;;;9.80;6.38;;;;;;;16.34;89.44;99246.78;4906309;29;20375;-92
2023/05/30 00:57:43;;;;;;;12.65;6.30;;;;;;;16.39;89.31;99245.84;4906053;29;20024;-92
2023/05/30 01:00:10;;;;;;;29.52;10.30;;;;;;;16.52;88.82;99255.84;4922542;29;20526;-92
2023/05/30 01:02:36;;;;;;;16.90;7.20;;;;;;;16.40;88.33;99231.16;4905342;29;20027;-91
2023/05/30 01:05:02;;;;;;;15.57;6.85;;;;;;;16.42;87.90;99228.94;4922824;29;20024;-91
2023/05/30 01:07:28;;;;;;;18.25;7.07;;;;;;;16.48;88.49;99250.22;4920371;29;20499;-91
2023/05/30 01:09:55;;;;;;;12.70;5.90;;;;;;;16.25;90.28;99268.47;4921466;29;20222;-90
2023/05/30 01:12:24;;;;;;;12.20;6.20;;;;;;;16.28;90.72;99286.84;4921110;29;20478;-90
2023/05/30 01:14:57;;;;;;;9.38;6.55;;;;;;;16.28;90.88;99288.75;4938578;29;20020;-90
2023/05/30 01:17:55;;;;;;;12.80;6.45;;;;;;;16.29;90.70;99280.31;4921724;29;20115;-89
2023/05/30 01:20:22;;;;;;;9.75;5.60;;;;;;;16.23;90.38;99294.31;4921591;29;20390;-89
2023/05/30 01:23:03;;;;;;;11.85;5.80;;;;;;;16.30;90.65;99292.78;4905178;29;20082;-89
2023/05/30 01:25:32;;;;;;;8.73;4.45;;;;;;;16.33;90.01;99292.16;4939507;29;20088;-90
2023/05/30 01:28:13;;;;;;;8.90;4.88;;;;;;;16.33;89.64;99280.47;4921351;29;20086;-91
2023/05/30 01:30:43;;;;;;;7.25;5.05;;;;;;;16.20;89.46;99260.41;4920927;29;20030;-90
2023/05/30 01:33:09;;;;;;;6.10;4.40;;;;;;;16.21;89.13;99259.31;4921378;29;20426;-89
2023/05/30 01:35:35;;;;;;;6.13;4.82;;;;;;;16.20;89.04;99263.13;4921994;29;20071;-90
2023/05/30 01:38:00;;;;;;;10.20;5.10;;;;;;;16.19;89.35;99266.97;4905052;29;20028;-90
2023/05/30 01:40:27;;;;;;;5.93;3.78;;;;;;;16.17;89.24;99256.41;4904633;29;20483;-90
2023/05/30 01:43:18;;;;;;;7.07;4.65;;;;;;;16.31;89.34;99269.13;4921108;29;20032;-90
2023/05/30 01:45:52;;;;;;;4.13;2.85;;;;;;;16.08;89.62;99241.97;4941336;29;20027;-90
2023/05/30 01:48:34;;;;;;;7.50;2.65;;;;;;;16.04;90.30;99249.13;4924554;29;20043;-91
2023/05/30 01:51:00;;;;;;;5.47;2.67;;;;;;;16.06;90.25;99241.47;4908015;29;20091;-89
2023/05/30 01:53:31;;;;;;;3.20;1.63;;;;;;;16.06;90.18;99241.47;4923603;29;20036;-90
2023/05/30 01:55:58;;;;;;;3.38;1.77;;;;;;;16.02;89.72;99231.50;4907286;29;20026;-89
2023/05/30 01:58:23;;;;;;;2.63;1.80;;;;;;;16.09;89.30;99243.56;4907292;29;20027;-90
2023/05/30 02:00:49;;;;;;;2.83;1.77;;;;;;;16.02;89.07;99234.22;4908336;29;20083;-90
2023/05/30 02:03:15;;;;;;;3.20;2.50;;;;;;;15.95;89.13;99227.31;4907826;29;20042;-90
2023/05/30 02:05:41;;;;;;;4.65;2.83;;;;;;;16.00;90.23;99228.31;4908790;29;20024;-90
2023/05/30 02:08:07;;;;;;;2.83;2.13;;;;;;;16.21;90.34;99256.59;4924326;29;20035;-91
2023/05/30 02:10:32;;;;;;;6.45;3.88;;;;;;;16.20;90.40;99246.03;4940905;29;20052;-91
2023/05/30 02:12:58;;;;;;;9.88;3.63;;;;;;;16.11;90.14;99235.91;4939747;29;20095;-90
2023/05/30 02:15:23;;;;;;;7.32;3.25;;;;;;;16.26;89.87;99245.59;4924972;29;20027;-91
2023/05/30 02:17:48;;;;;;;3.67;2.70;;;;;;;16.19;89.51;99223.50;4909103;29;20075;-91
2023/05/30 02:20:14;;;;;;;4.75;2.50;;;;;;;16.24;90.15;99239.66;4924845;29;20031;-91
2023/05/30 02:22:40;;;;;;;5.65;2.95;;;;;;;16.21;90.23;99236.75;4924778;29;20054;-91
2023/05/30 02:25:06;;;;;;;3.75;2.83;;;;;;;16.27;89.04;99249.94;4914101;29;20078;-90
2023/05/30 02:27:32;;;;;;;4.30;3.25;;;;;;;16.25;90.11;99245.91;4928297;29;20566;-90
2023/05/30 02:29:57;;;;;;;5.15;3.90;;;;;;;16.15;90.22;99236.91;4923940;29;20023;-90
2023/05/30 02:32:23;;;;;;;5.82;4.10;;;;;;;16.11;90.25;99235.09;4923861;29;20083;-91
2023/05/30 02:34:48;;;;;;;4.75;4.18;;;;;;;16.16;89.82;99243.13;4924532;29;20016;-91
2023/05/30 02:37:13;;;;;;;5.22;4.10;;;;;;;16.17;89.85;99239.31;4923602;29;20032;-91
2023/05/30 02:39:39;;;;;;;5.90;4.10;;;;;;;16.25;89.22;99246.72;4923797;29;20037;-91
2023/05/30 02:42:05;;;;;;;5.78;4.13;;;;;;;16.11;89.12;99232.41;4923274;29;20038;-92
2023/05/30 02:44:31;;;;;;;8.45;4.55;;;;;;;16.25;88.59;99256.75;4924912;29;20051;-92
2023/05/30 02:46:56;;;;;;;7.82;4.38;;;;;;;16.20;88.49;99257.69;4923615;29;20094;-93
2023/05/30 02:49:22;;;;;;;5.60;4.43;;;;;;;16.14;89.02;99256.22;4922865;29;20055;-92
2023/05/30 02:51:47;;;;;;;5.57;4.68;;;;;;;15.93;90.36;99250.47;4923521;29;20414;-92
2023/05/30 02:54:13;;;;;;;6.97;5.18;;;;;;;16.00;90.91;99283.44;4908742;29;20471;-92
2023/05/30 02:56:38;;;;;;;7.72;5.68;;;;;;;15.96;91.29;99285.16;4907676;29;20418;-92
2023/05/30 02:59:04;;;;;;;8.55;5.55;;;;;;;15.87;91.59;99276.91;4906625;29;20040;-92
2023/05/30 03:01:29;;;;;;;7.53;4.85;;;;;;;16.01;91.44;99295.09;4938978;29;20477;-93
2023/05/30 03:03:55;;;;;;;7.63;5.45;;;;;;;16.03;91.25;99288.25;4907217;29;20478;-91
2023/05/30 03:06:21;;;;;;;7.07;4.90;;;;;;;16.17;90.28;99283.56;4922557;29;20023;-90
2023/05/30 03:08:56;;;;;;;7.47;5.15;;;;;;;16.19;89.35;99291.41;4922660;29;20541;-91
2023/05/30 03:11:21;;;;;;;8.70;4.90;;;;;;;16.08;89.08;99276.44;4908328;29;20061;-92
2023/05/30 03:13:47;;;;;;;7.82;4.97;;;;;;;16.02;89.89;99264.94;4907600;29;20019;-91
2023/05/30 03:16:12;;;;;;;7.43;4.93;;;;;;;16.08;90.32;99273.75;4922893;29;20058;-92
2023/05/30 03:18:39;;;;;;;7.75;5.60;;;;;;;16.03;90.98;99273.88;4923368;29;20035;-91
2023/05/30 03:21:05;;;;;;;8.02;5.68;;;;;;;16.21;91.02;99294.63;4907277;29;20023;-91
2023/05/30 03:23:31;;;;;;;7.30;5.22;;;;;;;16.10;90.65;99296.78;4907161;29;20023;-92
2023/05/30 03:25:58;;;;;;;7.60;5.20;;;;;;;16.20;90.54;99294.94;4922810;29;20024;-92
2023/05/30 03:28:23;;;;;;;8.80;5.32;;;;;;;16.08;91.10;99301.72;4906611;29;20027;-92
2023/05/30 03:30:49;;;;;;;9.40;6.32;;;;;;;16.00;90.90;99282.63;4922355;29;20091;-92
2023/05/30 03:33:14;;;;;;;13.27;6.45;;;;;;;16.08;91.18;99295.47;4923283;29;20043;-92
2023/05/30 03:35:40;;;;;;;9.23;6.05;;;;;;;16.23;89.92;99302.44;4923039;29;20376;-91
2023/05/30 03:38:05;;;;;;;8.38;5.80;;;;;;;16.29;89.59;99293.91;4907644;29;20027;-92
2023/05/30 03:40:31;;;;;;;6.45;5.30;;;;;;;16.34;88.90;99282.91;4907366;29;20035;-92
2023/05/30 03:42:56;;;;;;;9.32;5.53;;;;;;;16.48;88.19;99296.44;4907512;29;20023;-92
2023/05/30 03:45:22;;;;;;;7.10;5.25;;;;;;;16.54;88.03;99306.06;4906132;29;20032;-91
2023/05/30 03:47:47;;;;;;;9.55;5.80;;;;;;;16.55;88.01;99315.00;4924266;29;20038;-92
2023/05/30 03:50:13;;;;;;;7.20;5.50;;;;;;;16.31;89.05;99313.41;4923606;29;20031;-92
2023/05/30 03:52:38;;;;;;;14.30;11.20;;;;;;;16.27;90.09;99312.41;4925034;29;20019;-94
2023/05/30 03:55:04;;;;;;;11.02;7.47;;;;;;;16.30;89.89;99321.88;4907304;29;20027;-93
2023/05/30 03:57:30;;;;;;;7.60;5.78;;;;;;;16.42;89.02;99322.13;4907092;29;20054;-92
2023/05/30 03:59:55;;;;;;;7.30;4.97;;;;;;;16.50;89.06;99317.88;4913984;29;20042;-93
2023/05/30 04:02:21;;;;;;;8.60;4.07;;;;;;;16.55;87.56;99310.38;4891288;29;20095;-91
2023/05/30 04:04:46;;;;;;;7.13;4.32;;;;;;;16.60;87.39;99317.63;4904434;29;20513;-93
2023/05/30 04:07:18;;;;;;;5.05;4.18;;;;;;;16.70;87.69;99321.97;4930013;29;20035;-92
2023/05/30 04:09:43;;;;;;;7.45;4.30;;;;;;;16.80;87.47;99332.59;4906352;29;20143;-93
2023/05/30 04:12:10;;;;;;;14.40;11.43;;;;;;;16.82;87.17;99321.44;4872867;29;20067;-92
2023/05/30 04:14:35;;;;;;;11.63;5.85;;;;;;;16.88;87.87;99333.81;4907170;29;20026;-93
2023/05/30 04:17:01;;;;;;;7.75;5.20;;;;;;;16.75;87.85;99311.00;4890692;29;20506;-92
2023/05/30 04:19:27;;;;;;;8.60;5.40;;;;;;;16.75;87.24;99328.09;4916278;29;20020;-92
2023/05/30 04:21:53;;;;;;;9.48;5.85;;;;;;;16.82;86.24;99319.53;4871321;29;20032;-93
2023/05/30 04:24:18;;;;;;;6.07;4.35;;;;;;;16.84;86.61;99322.75;4887300;29;20028;-92
2023/05/30 04:26:48;;;;;;;8.38;4.43;;;;;;;16.88;86.37;99328.38;4901779;29;20047;-92
2023/05/30 04:29:14;;;;;;;6.72;4.65;;;;;;;17.01;86.34;99332.91;4887830;29;20111;-92
2023/05/30 04:31:39;;;;;;;5.63;4.53;;;;;;;17.01;86.42;99319.31;4887744;29;20518;-90
2023/05/30 04:34:05;;;;;;;6.90;5.30;;;;;;;17.12;86.45;99330.72;4873412;29;20036;-90
2023/05/30 04:36:32;;;;;;;6.30;4.95;;;;;;;17.17;86.05;99323.22;4901842;29;20028;-91
2023/05/30 04:38:58;;;;;;;6.45;4.55;;;;;;;17.25;86.57;99345.38;4901613;29;20027;-92
2023/05/30 04:41:24;;;;;;;6.13;4.40;;;;;;;17.11;86.37;99329.91;4885838;29;20028;-92
2023/05/30 04:43:57;;;;;;;10.77;7.15;;;;;;;17.18;86.38;99332.19;4917847;29;20024;-92
2023/05/30 04:46:28;;;;;;;7.72;5.05;;;;;;;17.10;85.69;99330.22;4887099;29;20032;-93
2023/05/30 04:48:55;;;;;;;7.40;5.72;;;;;;;17.12;87.34;99328.00;4903124;29;20028;-93
2023/05/30 04:51:24;;;;;;;6.20;5.07;;;;;;;17.25;86.38;99326.31;4903654;29;20192;-92
2023/05/30 04:53:50;;;;;;;9.60;6.57;;;;;;;17.24;85.85;99325.50;4906460;29;20032;-91
2023/05/30 04:56:15;;;;;;;8.43;5.22;;;;;;;17.40;85.83;99335.97;4909060;29;20046;-92
2023/05/30 04:58:43;;;;;;;7.38;5.68;;;;;;;17.36;85.91;99331.16;4879986;29;20028;-92
2023/05/30 05:01:10;;;;;;;7.13;4.97;;;;;;;17.45;85.02;99338.53;4888237;29;20035;-91
2023/05/30 05:03:40;;;;;;;6.30;4.22;;;;;;;17.64;83.89;99338.28;4873895;29;20040;-94
2023/05/30 05:06:10;;;;;;;7.90;4.70;;;;;;;17.77;83.32;99345.53;4908414;29;20475;-93
2023/05/30 05:08:35;;;;;;;6.88;4.28;;;;;;;17.64;84.30;99327.38;4891150;29;20044;-94
2023/05/30 05:11:05;;;;;;;11.15;8.65;;;;;;;17.77;82.64;99337.38;4888745;29;20495;-93
2023/05/30 05:13:43;;;;;;;17.35;14.30;;;;;;;17.70;83.19;99348.72;4892381;29;20024;-95
2023/05/30 05:16:11;;;;;;;5.82;4.32;;;;;;;17.71;82.61;99330.47;4892780;29;20095;-95
2023/05/30 05:18:40;;;;;;;3.70;3.08;;;;;;;17.97;80.44;99347.69;4908343;29;20059;-95
2023/05/30 05:21:16;;;;;;;3.20;2.30;;;;;;;18.10;78.78;99351.38;4895465;29;20024;-94
2023/05/30 05:23:46;;;;;;;3.22;2.10;;;;;;;18.21;77.23;99345.63;4895317;29;20551;-92
2023/05/30 05:26:13;;;;;;;3.88;2.05;;;;;;;18.32;75.86;99339.53;4894023;29;20032;-93
2023/05/30 05:28:41;;;;;;;3.42;2.35;;;;;;;18.48;76.51;99349.94;4893623;29;20032;-95
2023/05/30 05:31:07;;;;;;;5.97;2.85;;;;;;;18.48;77.16;99358.13;4893268;29;20099;-95
2023/05/30 05:33:35;;;;;;;3.95;2.88;;;;;;;18.57;77.54;99348.84;4907702;29;20471;-92
2023/05/30 05:36:11;;;;;;;3.35;2.33;;;;;;;18.87;76.80;99368.06;4890141;29;20309;-92
2023/05/30 05:38:37;;;;;;;5.22;3.40;;;;;;;18.58;77.28;99334.06;4905839;29;20063;-92
2023/05/30 05:41:02;;;;;;;3.17;2.40;;;;;;;18.75;77.05;99335.16;4906696;29;20044;-92
2023/05/30 05:43:31;;;;;;;3.33;2.60;;;;;;;18.87;75.83;99356.34;4892036;29;20036;-92
2023/05/30 05:45:57;;;;;;;3.63;2.28;;;;;;;18.92;75.74;99367.09;4891860;29;20047;-94
2023/05/30 05:48:31;;;;;;;6.07;2.53;;;;;;;18.87;76.12;99359.88;4894088;29;20056;-96
2023/05/30 05:50:56;;;;;;;3.33;2.35;;;;;;;18.83;75.22;99348.00;4905745;29;20032;-94
2023/05/30 05:53:22;;;;;;;5.05;3.28;;;;;;;19.01;74.21;99361.59;4900675;29;20411;-95
2023/05/30 05:55:48;;;;;;;5.18;3.40;;;;;;;18.74;78.00;99356.19;4891272;29;20028;-92
2023/05/30 05:58:26;;;;;;;5.28;3.35;;;;;;;18.71;77.73;99384.09;4919877;29;20028;-93
2023/05/30 06:00:55;;;;;;;9.27;4.82;;;;;;;18.73;77.12;99372.88;4904989;29;20032;-95
2023/05/30 06:03:30;;;;;;;5.03;3.75;;;;;;;18.41;79.30;99372.25;4892594;29;20483;-95
2023/05/30 06:05:56;;;;;;;5.50;3.30;;;;;;;18.36;79.00;99365.03;4906688;29;20136;-94
2023/05/30 06:08:24;;;;;;;4.25;3.08;;;;;;;18.38;79.38;99378.34;4907464;29;20032;-93
2023/05/30 06:10:50;;;;;;;7.40;4.05;;;;;;;18.06;80.88;99371.41;4908941;29;20052;-94
2023/05/30 06:13:16;;;;;;;6.32;3.90;;;;;;;17.95;80.88;99370.91;4892079;29;20024;-93
2023/05/30 06:15:44;;;;;;;6.82;4.38;;;;;;;18.09;80.35;99374.28;4904893;29;20111;-92
2023/05/30 06:18:10;;;;;;;7.15;4.50;;;;;;;18.04;81.47;99363.56;4894372;29;20036;-93
2023/05/30 06:20:38;;;;;;;7.53;5.20;;;;;;;18.17;81.84;99373.50;4872575;29;20096;-92
2023/05/30 06:23:03;;;;;;;6.57;3.63;;;;;;;18.24;81.44;99388.59;4882258;29;20099;-90
2023/05/30 06:25:30;;;;;;;4.70;3.45;;;;;;;18.33;81.25;99394.84;4901090;29;20069;-92
2023/05/30 06:27:56;;;;;;;3.80;3.10;;;;;;;18.47;79.71;99391.97;4901700;29;20032;-90
2023/05/30 06:30:21;;;;;;;3.95;2.65;;;;;;;18.46;79.08;99380.25;4905499;29;20031;-91
2023/05/30 06:32:50;;;;;;;3.30;2.22;;;;;;;18.47;77.44;99375.59;4898400;29;20039;-92
2023/05/30 06:35:15;;;;;;;5.53;4.32;;;;;;;18.80;78.81;99399.69;4918722;29;20112;-93
2023/05/30 06:37:42;;;;;;;5.28;2.22;;;;;;;18.78;77.24;99379.00;4875569;29;20048;-91
2023/05/30 06:40:08;;;;;;;7.00;2.70;;;;;;;19.03;76.26;99375.72;4914279;29;20035;-91
2023/05/30 06:42:36;;;;;;;6.18;2.42;;;;;;;19.32;75.14;99405.84;4908640;29;20032;-89
2023/05/30 06:45:02;;;;;;;5.03;3.45;;;;;;;19.32;74.00;99380.47;4903059;29;20115;-90
2023/05/30 06:47:27;;;;;;;6.38;4.35;;;;;;;19.16;73.68;99377.47;4875038;29;20032;-91
2023/05/30 06:49:53;;;;;;;5.40;2.67;;;;;;;19.26;74.44;99379.84;4902776;29;20501;-92
2023/05/30 06:52:19;;;;;;;3.47;2.13;;;;;;;19.14;73.89;99372.34;4905735;29;20044;-90
2023/05/30 06:54:46;;;;;;;4.65;2.70;;;;;;;19.23;75.24;99366.03;4895036;29;20055;-90
2023/05/30 06:57:11;;;;;;;2.40;1.90;;;;;;;19.34;73.46;99362.66;4903820;29;20047;-89
2023/05/30 06:59:37;;;;;;;1.80;1.50;;;;;;;19.33;70.71;99368.44;4901967;29;20522;-89
2023/05/30 07:02:02;;;;;;;4.30;1.65;;;;;;;19.26;72.44;99374.41;4886664;29;20091;-89
2023/05/30 07:04:28;;;;;;;1.75;1.48;;;;;;;19.36;71.68;99395.88;4890038;29;20032;-88
2023/05/30 07:06:54;;;;;;;4.20;1.90;;;;;;;19.21;71.82;99371.03;4892564;29;20032;-90
2023/05/30 07:09:19;;;;;;;3.80;1.80;;;;;;;19.58;71.58;99383.88;4897644;29;20035;-90
2023/05/30 07:11:45;;;;;;;2.60;2.03;;;;;;;19.72;71.40;99370.03;4905262;29;20477;-89
2023/05/30 07:14:13;;;;;;;2.45;1.77;;;;;;;19.79;69.31;99370.31;4887930;29;20578;-90
2023/05/30 07:16:39;;;;;;;3.78;1.70;;;;;;;19.82;69.45;99377.06;4886362;29;20119;-89
2023/05/30 07:19:05;;;;;;;2.92;1.80;;;;;;;19.80;69.02;99373.88;4898915;29;20034;-87
2023/05/30 07:21:31;;;;;;;4.50;1.88;;;;;;;20.08;69.79;99397.97;4878026;29;20036;-89
2023/05/30 07:23:56;;;;;;;4.03;2.28;;;;;;;20.21;67.98;99385.97;4897538;29;20499;-89
2023/05/30 07:26:22;;;;;;;4.20;1.67;;;;;;;20.41;66.75;99398.06;4913521;29;20464;-89
2023/05/30 07:28:48;;;;;;;4.35;3.20;;;;;;;20.55;68.67;99387.66;4895660;29;20502;-89
2023/05/30 07:31:16;;;;;;;6.25;1.90;;;;;;;20.76;67.48;99384.13;4906135;29;20028;-90
2023/05/30 07:33:41;;;;;;;6.07;2.88;;;;;;;20.82;65.96;99382.00;4897092;29;20091;-90
2023/05/30 07:36:07;;;;;;;1.75;1.40;;;;;;;20.99;64.79;99371.66;4886289;29;20028;-91
2023/05/30 07:38:33;;;;;;;8.00;2.72;;;;;;;21.13;66.36;99379.56;4901062;29;20489;-91
2023/05/30 07:40:59;;;;;;;2.47;1.63;;;;;;;21.05;65.33;99377.72;4916231;29;20558;-90
2023/05/30 07:43:24;;;;;;;11.57;2.83;;;;;;;21.10;66.43;99382.97;4893991;29;20042;-92
2023/05/30 07:45:50;;;;;;;11.45;8.05;;;;;;;21.41;65.69;99395.34;4873608;29;20751;-90
2023/05/30 07:48:21;;;;;;;6.85;2.00;;;;;;;21.43;66.31;99384.88;4905278;29;20060;-92
2023/05/30 07:50:46;;;;;;;2.45;1.60;;;;;;;21.69;61.86;99398.28;4896814;29;20454;-91
2023/05/30 07:53:12;;;;;;;4.05;1.88;;;;;;;21.64;62.42;99389.47;4887630;29;20028;-90
2023/05/30 07:55:37;;;;;;;3.33;2.20;;;;;;;21.53;62.38;99384.44;4895625;29;20055;-91
2023/05/30 07:58:03;;;;;;;5.50;2.42;;;;;;;21.49;63.86;99386.25;4919837;29;20036;-90
2023/05/30 08:00:34;;;;;;;2.85;2.00;;;;;;;21.66;63.08;99387.19;4901787;29;20035;-92
2023/05/30 08:02:59;;;;;;;3.47;2.10;;;;;;;21.73;62.88;99381.94;4904857;29;20039;-91
2023/05/30 08:05:25;;;;;;;3.42;1.90;;;;;;;21.94;62.90;99398.28;4891984;29;20417;-91
2023/05/30 08:07:51;;;;;;;6.10;2.10;;;;;;;22.07;63.57;99385.34;4873256;29;20479;-92
2023/05/30 08:10:16;;;;;;;4.63;1.83;;;;;;;22.16;59.10;99372.28;4901071;29;20053;-90
2023/05/30 08:12:44;;;;;;;3.72;2.00;;;;;;;22.28;61.21;99391.50;4885504;29;20033;-90
2023/05/30 08:15:10;;;;;;;15.05;10.23;;;;;;;22.27;60.92;99381.69;4866949;29;20025;-91
2023/05/30 08:17:36;;;;;;;6.15;2.83;;;;;;;22.38;60.88;99380.03;4898688;29;20051;-90
2023/05/30 08:20:03;;;;;;;2.20;1.90;;;;;;;22.38;59.79;99388.25;4866152;29;20036;-90
2023/05/30 08:22:31;;;;;;;15.45;12.20;;;;;;;22.44;60.80;99388.81;4880674;29;20025;-91
2023/05/30 08:24:59;;;;;;;9.35;5.60;;;;;;;22.56;60.78;99371.53;4884591;29;20119;-89
2023/05/30 08:27:25;;;;;;;11.50;8.85;;;;;;;22.66;59.11;99393.00;4867607;29;20043;-92
2023/05/30 08:29:50;;;;;;;4.10;2.40;;;;;;;22.69;58.66;99386.00;4858062;29;20024;-89
2023/05/30 08:32:16;;;;;;;34.20;18.08;;;;;;;22.79;59.70;99389.03;4872626;29;20487;-92
2023/05/30 08:34:43;;;;;;;14.07;7.20;;;;;;;22.93;57.34;99393.31;4883691;29;20025;-93
2023/05/30 08:37:08;;;;;;;3.63;2.40;;;;;;;23.04;56.67;99401.91;4865016;29;21350;-88
2023/05/30 08:39:34;;;;;;;4.35;2.47;;;;;;;23.05;56.89;99414.47;4872920;29;20064;-88
2023/05/30 08:42:00;;;;;;;4.38;2.22;;;;;;;22.92;56.88;99402.72;4895058;29;20422;-91
2023/05/30 08:44:29;;;;;;;3.92;2.40;;;;;;;22.97;55.95;99408.75;4897732;29;20032;-91
2023/05/30 08:47:12;;;;;;;3.10;1.83;;;;;;;23.04;55.40;99394.44;4882794;29;20040;-93
2023/05/30 08:49:42;;;;;;;9.10;4.30;;;;;;;23.15;56.93;99386.47;4865997;29;20040;-93
2023/05/30 08:52:12;;;;;;;3.13;2.40;;;;;;;23.50;56.12;99394.84;4881612;29;20063;-94
2023/05/30 08:54:50;;;;;;;4.88;2.38;;;;;;;23.67;54.04;99390.94;4872314;29;20064;-93
2023/05/30 08:57:25;;;;;;;4.00;2.28;;;;;;;23.77;53.98;99392.38;4885625;29;20091;-96
2023/05/30 09:00:05;;;;;;;5.40;3.15;;;;;;;23.63;54.46;99373.53;4889435;29;20056;-96
2023/05/30 09:02:55;;;;;;;;;;;;;;;;;;;;;
2023/05/30 09:05:43;;;;;;;2.80;2.17;;;;;;;23.90;54.05;99390.31;4860151;29;20165;-96
2023/05/30 09:08:53;;;;;;;;;;;;;;;;;;;;;
2023/05/30 09:16:57;;;;;;;4.65;2.45;;;;;;;23.89;53.00;99395.03;5013879;23;20055;-96
2023/05/30 09:19:24;;;;;;;7.22;2.20;;;;;;;23.80;52.87;99416.41;4912584;29;20119;-94
2023/05/30 09:21:51;;;;;;;2.60;1.98;;;;;;;23.50;53.31;99392.09;4896719;29;20037;-96
2023/05/30 09:24:57;;;;;;;7.07;2.33;;;;;;;23.59;51.93;99402.91;4893925;29;20045;-95
2023/05/30 09:30:42;;;;;;;3.80;2.70;;;;;;;23.90;51.78;99393.06;5324907;23;20529;-95
2023/05/30 09:43:40;;;;;;;3.50;2.50;;;;;;;24.43;50.13;99390.69;4945298;29;20047;-95
2023/05/30 09:46:15;;;;;;;6.50;3.25;;;;;;;24.40;52.00;99405.16;4920610;29;20455;-95
2023/05/30 09:48:41;;;;;;;5.05;2.42;;;;;;;24.41;50.60;99393.03;4892793;29;20044;-96
2023/05/30 09:51:06;;;;;;;4.78;2.70;;;;;;;24.32;51.06;99384.16;4900798;29;20600;-95
2023/05/30 09:53:34;;;;;;;4.20;2.80;;;;;;;24.52;49.58;99393.28;4914909;29;20040;-96
2023/05/30 09:56:11;;;;;;;5.30;2.35;;;;;;;24.20;51.03;99380.41;4927346;29;20035;-96
2023/05/30 09:58:37;;;;;;;3.35;1.98;;;;;;;24.14;52.13;99398.34;4928301;29;20031;-95
2023/05/30 10:01:03;;;;;;;5.00;2.72;;;;;;;24.09;51.30;99392.31;4909790;29;20042;-96
2023/05/30 10:03:44;;;;;;;4.78;2.38;;;;;;;23.77;52.68;99371.16;4899813;29;20032;-93
2023/05/30 10:06:13;;;;;;;4.60;2.70;;;;;;;23.89;51.07;99377.72;4931061;29;20055;-91
2023/05/30 10:09:17;;;;;;;3.75;2.13;;;;;;;23.90;51.87;99368.31;4918865;29;20043;-96
2023/05/30 10:11:48;;;;;;;4.05;2.30;;;;;;;23.87;51.87;99377.28;5188290;23;20045;-96
2023/05/30 10:50:13;;;;;;;4.05;1.90;;;;;;;23.71;52.54;99349.78;3679341;23;19926;-92
2023/05/30 10:52:38;;;;;;;5.45;2.25;;;;;;;23.42;52.52;99351.84;4907808;29;20035;-91
2023/05/30 10:55:10;;;;;;;5.40;2.05;;;;;;;23.72;52.52;99359.59;4940129;29;20395;-91
2023/05/30 10:57:39;;;;;;;5.57;2.78;;;;;;;23.85;52.23;99332.84;4895547;29;20529;-90
2023/05/30 11:00:26;;;;;;;4.00;2.20;;;;;;;23.64;52.13;99355.91;4912121;29;20032;-94
2023/05/30 11:02:57;;;;;;;4.53;2.38;;;;;;;23.55;53.39;99361.59;4912102;29;20034;-91
2023/05/30 11:05:32;;;;;;;5.95;2.47;;;;;;;23.69;52.53;99352.09;4914457;29;20024;-91
2023/05/30 11:08:07;;;;;;;5.63;2.63;;;;;;;23.68;52.02;99347.72;4911704;29;20032;-89
2023/05/30 11:10:37;;;;;;;3.13;2.10;;;;;;;23.85;52.12;99347.38;4922181;29;20038;-90
2023/05/30 11:13:10;;;;;;;4.15;2.22;;;;;;;23.85;52.76;99347.38;4913365;29;20027;-92
2023/05/30 11:15:36;;;;;;;3.70;2.35;;;;;;;23.95;52.49;99324.84;4898604;29;20092;-91
2023/05/30 11:18:04;;;;;;;3.83;2.20;;;;;;;24.09;51.25;99329.03;4911858;29;20107;-91
2023/05/30 11:20:38;;;;;;;3.35;2.42;;;;;;;23.87;52.04;99336.84;4897681;29;20039;-90
2023/05/30 11:23:04;;;;;;;3.20;2.20;;;;;;;23.91;52.00;99343.22;4930728;29;20023;-91
2023/05/30 11:25:33;;;;;;;2.50;1.95;;;;;;;23.61;52.40;99326.38;4943305;29;20034;-93
2023/05/30 11:28:04;;;;;;;9.57;3.17;;;;;;;23.54;53.82;99340.75;4892711;29;20070;-92
2023/05/30 11:30:42;;;;;;;5.18;2.65;;;;;;;23.56;52.30;99316.47;4923382;29;20123;-93
2023/05/30 11:33:14;;;;;;;5.28;2.50;;;;;;;23.68;52.31;99310.06;4892512;29;20122;-93
2023/05/30 11:35:49;;;;;;;3.45;2.30;;;;;;;23.57;50.90;99303.50;4890240;29;20142;-92
2023/05/30 11:38:22;;;;;;;3.13;2.33;;;;;;;23.58;51.84;99311.41;4914651;29;20032;-91
2023/05/30 11:40:50;;;;;;;6.72;2.30;;;;;;;23.46;52.28;99300.50;4898078;29;20063;-93
2023/05/30 11:43:16;;;;;;;4.95;3.13;;;;;;;23.46;52.15;99305.22;4905381;29;20040;-92
2023/05/30 11:45:57;;;;;;;5.53;2.53;;;;;;;23.38;50.03;99315.22;4899790;29;20039;-94
2023/05/30 11:48:25;;;;;;;4.03;2.58;;;;;;;22.92;51.42;99301.13;4964432;29;20044;-95
2023/05/30 11:50:53;;;;;;;7.15;3.25;;;;;;;22.78;53.26;99309.78;4912735;29;20078;-94
2023/05/30 11:53:43;;;;;;;4.28;2.50;;;;;;;22.88;53.59;99311.22;4928327;29;20051;-94
2023/05/30 11:56:29;;;;;;;;;;;;;;;;;;;;;
2023/05/30 11:59:07;;;;;;;10.90;7.25;;;;;;;23.31;51.36;99293.09;4947775;29;20121;-94
2023/05/30 12:01:38;;;;;;;7.40;4.40;;;;;;;23.28;50.74;99296.53;4910090;29;20031;-93
2023/05/30 12:04:05;;;;;;;4.25;2.53;;;;;;;23.24;50.14;99268.97;4922689;29;20066;-92
2023/05/30 12:06:34;;;;;;;5.45;2.30;;;;;;;23.32;50.64;99268.00;4940462;29;20434;-94
2023/05/30 12:12:19;;;;;;;;;;;;;;;;;;;;;
2023/05/30 12:14:47;;;;;;;4.70;2.80;;;;;;;23.63;50.42;99282.03;4924176;29;20103;-94
2023/05/30 12:28:36;;;;;;;4.70;2.72;;;;;;;23.86;48.46;99254.69;4903763;29;20049;-94
2023/05/30 12:31:07;;;;;;;4.47;2.58;;;;;;;23.90;48.52;99225.31;4859575;29;20090;-95
2023/05/30 12:33:43;;;;;;;6.60;2.60;;;;;;;24.02;48.64;99216.91;4875031;29;20587;-91
2023/05/30 12:36:11;;;;;;;6.43;2.70;;;;;;;24.22;48.92;99214.94;4865935;29;20664;-94
2023/05/30 12:38:37;;;;;;;4.88;2.72;;;;;;;24.37;49.38;99232.53;4867951;29;20048;-94
2023/05/30 12:41:14;;;;;;;5.32;2.78;;;;;;;24.04;48.43;99213.81;4868155;29;20029;-94
2023/05/30 12:43:40;;;;;;;4.93;2.60;;;;;;;24.20;48.39;99218.06;4881790;29;20097;-93
2023/05/30 12:46:08;;;;;;;7.72;2.70;;;;;;;24.07;48.13;99211.09;4880775;29;20037;-94
2023/05/30 12:48:46;;;;;;;;;;;;;;;;;;;;;
2023/05/30 12:51:15;;;;;;;5.18;2.80;;;;;;;24.39;47.40;99210.94;4891368;29;20102;-93
2023/05/30 12:53:40;;;;;;;5.10;2.90;;;;;;;24.43;47.08;99209.03;4889852;29;20032;-91
2023/05/30 12:56:06;;;;;;;5.75;2.83;;;;;;;24.36;46.53;99198.72;4869484;29;20032;-93